Time;durP1;ratioP1;P1;durP2;ratioP2;P2;SDS_P1;SDS_P2;PMS_P1;PMS_P2;Temp;Humidity;BMP_temperature;BMP_pressure;BME280_temperature;BME280_humidity;BME280_pressure;Samples;Min_cycle;Max_cycle;Signal;HPM_P1;HPM_P2
2024/02/16 00:00:03;;;;;;;2.55;2.35;;;;;;;;;;1303379;22;20423;-77
2024/02/16 00:00:34;;;;;;;21.83;3.33;;;;;;;;;;1303580;22;20003;-76
2024/02/16 00:01:04;;;;;;;13.15;3.42;;;;;;;;;;1314473;22;20350;-76
2024/02/16 00:01:36;;;;;;;5.57;2.20;;;;;;;;;;1314829;22;19999;-76
2024/02/16 00:02:06;;;;;;;1.35;1.25;;;;;;;;;;1313173;22;20006;-76
2024/02/16 00:02:40;;;;;;;4.88;3.13;;;;;;;;;;1313471;22;20007;-76
2024/02/16 00:03:11;;;;;;;22.67;2.08;;;;;;;;;;1312340;22;19998;-75
2024/02/16 00:03:41;;;;;;;1.30;1.08;;;;;;;;;;1312854;22;20014;-76
2024/02/16 00:04:12;;;;;;;5.90;3.85;;;;;;;;;;1305633;22;20331;-76
2024/02/16 00:04:42;;;;;;;2.30;1.50;;;;;;;;;;1306883;22;20090;-75
2024/02/16 00:05:13;;;;;;;4.03;1.85;;;;;;;;;;1308105;22;20003;-76
2024/02/16 00:05:44;;;;;;;2.65;2.00;;;;;;;;;;1303662;22;20003;-76
2024/02/16 00:06:14;;;;;;;0.75;0.75;;;;;;;;;;1310791;22;20016;-76
2024/02/16 00:06:44;;;;;;;2.70;2.50;;;;;;;;;;1304277;22;20003;-76
2024/02/16 00:07:15;;;;;;;4.78;1.55;;;;;;;;;;1302966;22;20007;-76
2024/02/16 00:07:45;;;;;;;2.70;1.45;;;;;;;;;;1303500;22;20003;-76
2024/02/16 00:08:16;;;;;;;6.35;4.15;;;;;;;;;;1304865;22;20093;-76
2024/02/16 00:08:47;;;;;;;3.10;2.47;;;;;;;;;;1313352;22;20006;-76
2024/02/16 00:09:17;;;;;;;7.97;2.17;;;;;;;;;;1311503;22;20028;-76
2024/02/16 00:09:47;;;;;;;4.68;4.28;;;;;;;;;;1310829;22;20031;-75
2024/02/16 00:10:20;;;;;;;1.25;1.23;;;;;;;;;;1310875;22;20086;-76
2024/02/16 00:10:50;;;;;;;1.70;1.58;;;;;;;;;;1311935;22;20398;-76
2024/02/16 00:11:21;;;;;;;2.38;2.28;;;;;;;;;;1312467;22;20018;-76
2024/02/16 00:11:52;;;;;;;7.43;4.80;;;;;;;;;;1312847;22;20030;-76
2024/02/16 00:12:23;;;;;;;4.47;2.30;;;;;;;;;;1309986;22;19998;-76
2024/02/16 00:12:53;;;;;;;8.23;3.67;;;;;;;;;;1303484;22;20075;-76
2024/02/16 00:13:24;;;;;;;0.98;0.95;;;;;;;;;;1303235;22;20010;-76
2024/02/16 00:13:54;;;;;;;1.83;1.73;;;;;;;;;;1303484;22;19999;-76
2024/02/16 00:14:24;;;;;;;18.67;3.42;;;;;;;;;;1303426;22;20420;-76
2024/02/16 00:14:55;;;;;;;7.53;3.72;;;;;;;;;;1303006;22;20320;-76
2024/02/16 00:15:25;;;;;;;8.07;5.63;;;;;;;;;;1303108;22;20014;-76
2024/02/16 00:15:57;;;;;;;21.02;1.55;;;;;;;;;;1303452;22;20446;-76
2024/02/16 00:16:27;;;;;;;6.00;1.92;;;;;;;;;;1303586;22;20003;-76
2024/02/16 00:16:58;;;;;;;4.80;3.03;;;;;;;;;;1303414;22;20078;-75
2024/02/16 00:17:28;;;;;;;2.05;1.92;;;;;;;;;;1303080;22;20034;-76
2024/02/16 00:17:59;;;;;;;12.80;6.35;;;;;;;;;;1303459;22;20328;-76
2024/02/16 00:18:29;;;;;;;35.72;3.08;;;;;;;;;;1303432;22;20056;-76
2024/02/16 00:19:00;;;;;;;8.23;3.33;;;;;;;;;;1310296;22;20006;-76
2024/02/16 00:19:30;;;;;;;26.00;2.08;;;;;;;;;;1310032;22;20013;-76
2024/02/16 00:20:01;;;;;;;3.65;3.33;;;;;;;;;;1310192;22;20003;-76
2024/02/16 00:20:31;;;;;;;8.52;2.00;;;;;;;;;;1310194;22;20399;-76
2024/02/16 00:21:02;;;;;;;2.63;2.40;;;;;;;;;;1310306;22;20006;-76
2024/02/16 00:21:32;;;;;;;3.95;3.17;;;;;;;;;;1303065;22;20057;-76
2024/02/16 00:22:03;;;;;;;6.80;3.58;;;;;;;;;;1303165;22;20313;-76
2024/02/16 00:22:34;;;;;;;2.22;2.13;;;;;;;;;;1296670;22;20011;-76
2024/02/16 00:23:05;;;;;;;3.55;1.40;;;;;;;;;;1290861;22;20000;-76
2024/02/16 00:23:35;;;;;;;4.55;1.52;;;;;;;;;;1296832;22;20008;-76
2024/02/16 00:24:07;;;;;;;3.10;1.85;;;;;;;;;;1297353;22;20008;-76
2024/02/16 00:24:37;;;;;;;5.47;3.30;;;;;;;;;;1303766;22;20056;-76
2024/02/16 00:25:08;;;;;;;25.27;5.22;;;;;;;;;;1310075;22;20381;-76
2024/02/16 00:25:40;;;;;;;2.78;2.63;;;;;;;;;;1310099;22;20014;-76
2024/02/16 00:26:11;;;;;;;5.47;0.98;;;;;;;;;;1310344;22;20025;-76
2024/02/16 00:26:43;;;;;;;4.00;2.13;;;;;;;;;;1310051;22;20002;-76
2024/02/16 00:27:13;;;;;;;33.35;5.95;;;;;;;;;;1309895;22;20052;-76
2024/02/16 00:27:44;;;;;;;1.98;1.88;;;;;;;;;;1303279;22;20104;-76
2024/02/16 00:28:14;;;;;;;3.03;2.65;;;;;;;;;;1303303;22;20004;-76
2024/02/16 00:28:45;;;;;;;10.60;5.25;;;;;;;;;;1303526;22;20514;-76
2024/02/16 00:29:15;;;;;;;26.13;5.50;;;;;;;;;;1303284;22;20421;-76
2024/02/16 00:29:46;;;;;;;13.52;5.10;;;;;;;;;;1303365;22;20435;-76
2024/02/16 00:30:17;;;;;;;3.00;2.22;;;;;;;;;;1303340;22;20441;-76
2024/02/16 00:30:49;;;;;;;23.98;3.90;;;;;;;;;;1303537;22;20025;-76
2024/02/16 00:31:19;;;;;;;2.30;2.15;;;;;;;;;;1297289;22;20007;-76
2024/02/16 00:31:50;;;;;;;5.70;1.50;;;;;;;;;;1303276;22;20007;-75
2024/02/16 00:32:20;;;;;;;10.38;2.22;;;;;;;;;;1303350;22;20041;-76
2024/02/16 00:32:52;;;;;;;2.50;2.30;;;;;;;;;;1297164;22;20003;-75
2024/02/16 00:33:23;;;;;;;0.57;0.57;;;;;;;;;;1297189;22;20008;-76
2024/02/16 00:33:53;;;;;;;4.78;1.45;;;;;;;;;;1303397;22;20034;-75
2024/02/16 00:34:23;;;;;;;6.55;2.38;;;;;;;;;;1303705;22;20007;-75
2024/02/16 00:34:54;;;;;;;1.63;1.52;;;;;;;;;;1310320;22;20060;-75
2024/02/16 00:35:24;;;;;;;0.65;0.65;;;;;;;;;;1309958;22;20434;-75
2024/02/16 00:35:55;;;;;;;5.85;2.00;;;;;;;;;;1310341;22;20003;-76
2024/02/16 00:36:30;;;;;;;2.67;2.53;;;;;;;;;;1309992;22;20374;-76
2024/02/16 00:37:00;;;;;;;1.90;1.17;;;;;;;;;;1303213;22;20007;-76
2024/02/16 00:37:31;;;;;;;0.73;0.73;;;;;;;;;;1303015;22;20458;-76
2024/02/16 00:38:01;;;;;;;11.45;1.73;;;;;;;;;;1303350;22;20057;-75
2024/02/16 00:38:32;;;;;;;2.33;1.80;;;;;;;;;;1303269;22;19995;-75
2024/02/16 00:39:03;;;;;;;7.05;6.25;;;;;;;;;;1303400;22;20007;-76
2024/02/16 00:39:34;;;;;;;2.38;2.17;;;;;;;;;;1303256;22;20003;-76
2024/02/16 00:40:06;;;;;;;8.93;4.65;;;;;;;;;;1297286;22;20607;-76
2024/02/16 00:40:43;;;;;;;7.57;3.45;;;;;;;;;;1303318;22;20466;-76
2024/02/16 00:41:17;;;;;;;1.13;1.08;;;;;;;;;;1303369;22;20053;-76
2024/02/16 00:41:47;;;;;;;2.45;1.85;;;;;;;;;;1306056;22;20082;-76
2024/02/16 00:42:18;;;;;;;10.43;2.97;;;;;;;;;;1309999;22;21455;-78
2024/02/16 00:42:48;;;;;;;3.80;3.47;;;;;;;;;;1310286;22;20056;-76
2024/02/16 00:43:19;;;;;;;4.82;1.73;;;;;;;;;;1309941;22;20009;-76
2024/02/16 00:43:50;;;;;;;2.05;1.45;;;;;;;;;;1303410;22;19995;-75
2024/02/16 00:44:21;;;;;;;1.05;1.05;;;;;;;;;;1303283;22;20014;-75
2024/02/16 00:44:51;;;;;;;1.60;1.50;;;;;;;;;;1303396;22;20435;-75
2024/02/16 00:45:21;;;;;;;8.73;4.80;;;;;;;;;;1296631;22;20000;-75
2024/02/16 00:45:52;;;;;;;2.00;1.85;;;;;;;;;;1296903;22;20089;-76
2024/02/16 00:46:23;;;;;;;1.38;1.27;;;;;;;;;;1290369;22;19999;-77
2024/02/16 00:46:53;;;;;;;0.17;0.17;;;;;;;;;;1293590;22;20086;-77
2024/02/16 00:47:25;;;;;;;4.30;3.78;;;;;;;;;;1303042;22;20015;-75
2024/02/16 00:47:57;;;;;;;2.75;2.55;;;;;;;;;;1303390;22;20011;-75
2024/02/16 00:48:27;;;;;;;4.10;3.70;;;;;;;;;;1303206;22;20463;-76
2024/02/16 00:48:57;;;;;;;7.88;2.47;;;;;;;;;;1296920;22;20057;-76
2024/02/16 00:49:28;;;;;;;1.83;1.63;;;;;;;;;;1296761;22;20071;-76
2024/02/16 00:49:58;;;;;;;4.03;3.47;;;;;;;;;;1297024;22;20011;-76
2024/02/16 00:50:29;;;;;;;0.90;0.90;;;;;;;;;;1296905;22;20336;-75
2024/02/16 00:50:59;;;;;;;3.75;3.35;;;;;;;;;;1303780;22;20003;-76
2024/02/16 00:51:30;;;;;;;5.35;3.58;;;;;;;;;;1302077;22;20098;-77
2024/02/16 00:52:01;;;;;;;3.85;2.95;;;;;;;;;;1303466;22;19999;-76
2024/02/16 00:52:32;;;;;;;0.70;0.70;;;;;;;;;;1303627;22;20003;-75
2024/02/16 00:53:04;;;;;;;3.00;2.33;;;;;;;;;;1296899;22;20321;-76
2024/02/16 00:53:34;;;;;;;2.15;1.77;;;;;;;;;;1296945;22;20012;-76
2024/02/16 00:54:05;;;;;;;27.23;3.97;;;;;;;;;;1296712;22;20396;-76
2024/02/16 00:54:36;;;;;;;4.38;3.03;;;;;;;;;;1297251;22;20007;-75
2024/02/16 00:55:06;;;;;;;2.15;1.85;;;;;;;;;;1303437;22;20060;-75
2024/02/16 00:55:37;;;;;;;3.72;2.70;;;;;;;;;;1303233;22;20003;-75
2024/02/16 00:56:08;;;;;;;2.97;2.15;;;;;;;;;;1303706;22;20323;-76
2024/02/16 00:56:38;;;;;;;0.68;0.68;;;;;;;;;;1303567;22;19995;-75
2024/02/16 00:57:09;;;;;;;5.85;2.22;;;;;;;;;;1296746;22;20090;-75
2024/02/16 00:57:39;;;;;;;3.53;3.22;;;;;;;;;;1296627;22;20031;-76
2024/02/16 00:58:10;;;;;;;2.78;2.58;;;;;;;;;;1297145;22;20039;-75
2024/02/16 00:58:42;;;;;;;2.40;2.28;;;;;;;;;;1290517;22;20020;-76
2024/02/16 00:59:12;;;;;;;3.30;2.75;;;;;;;;;;1290295;23;20451;-75
2024/02/16 00:59:44;;;;;;;3.35;3.10;;;;;;;;;;1290399;23;20004;-76
2024/02/16 01:00:15;;;;;;;2.20;1.98;;;;;;;;;;1284448;23;20031;-76
2024/02/16 01:00:45;;;;;;;2.55;1.85;;;;;;;;;;1284814;23;20364;-76
2024/02/16 01:01:16;;;;;;;2.08;1.88;;;;;;;;;;1283841;23;20005;-76
2024/02/16 01:01:46;;;;;;;2.85;1.20;;;;;;;;;;1284559;23;20011;-76
2024/02/16 01:02:17;;;;;;;1.13;1.10;;;;;;;;;;1290413;22;20011;-75
2024/02/16 01:02:47;;;;;;;0.85;0.85;;;;;;;;;;1297177;22;20004;-80
2024/02/16 01:03:18;;;;;;;2.17;2.08;;;;;;;;;;1303479;22;20007;-76
2024/02/16 01:03:49;;;;;;;4.10;2.47;;;;;;;;;;1303622;22;20003;-75
2024/02/16 01:04:19;;;;;;;2.03;1.90;;;;;;;;;;1303552;22;20453;-76
2024/02/16 01:04:51;;;;;;;3.35;0.70;;;;;;;;;;1303722;22;20007;-76
2024/02/16 01:05:23;;;;;;;1.27;1.17;;;;;;;;;;1296706;22;20027;-75
2024/02/16 01:05:53;;;;;;;0.30;0.30;;;;;;;;;;1296772;22;20030;-76
2024/02/16 01:06:24;;;;;;;0.10;0.10;;;;;;;;;;1290312;23;20050;-76
2024/02/16 01:06:54;;;;;;;2.25;2.15;;;;;;;;;;1291253;22;20195;-75
2024/02/16 01:07:25;;;;;;;4.38;3.95;;;;;;;;;;1289980;22;20004;-75
2024/02/16 01:07:55;;;;;;;2.13;2.00;;;;;;;;;;1290729;22;20437;-75
2024/02/16 01:08:27;;;;;;;1.08;1.05;;;;;;;;;;1296779;22;20544;-76
2024/02/16 01:08:57;;;;;;;9.35;2.33;;;;;;;;;;1297040;22;20163;-75
2024/02/16 01:09:28;;;;;;;13.82;2.33;;;;;;;;;;1296664;22;20004;-75
2024/02/16 01:09:59;;;;;;;1.63;1.52;;;;;;;;;;1290424;23;20004;-76
2024/02/16 01:10:30;;;;;;;6.78;5.57;;;;;;;;;;1290716;22;20421;-75
2024/02/16 01:11:00;;;;;;;5.70;3.00;;;;;;;;;;1296979;22;20016;-74
2024/02/16 01:11:31;;;;;;;0.20;0.20;;;;;;;;;;1296768;22;20010;-75
2024/02/16 01:12:02;;;;;;;5.10;3.33;;;;;;;;;;1293846;22;20012;-76
2024/02/16 01:12:33;;;;;;;0.73;0.73;;;;;;;;;;1303187;22;20003;-76
2024/02/16 01:13:05;;;;;;;2.85;1.92;;;;;;;;;;1303345;22;20003;-75
2024/02/16 01:13:35;;;;;;;0.50;0.50;;;;;;;;;;1303128;22;20502;-75
2024/02/16 01:14:07;;;;;;;2.50;2.13;;;;;;;;;;1303617;22;20084;-76
2024/02/16 01:14:37;;;;;;;4.07;3.17;;;;;;;;;;1308074;22;20017;-76
2024/02/16 01:15:08;;;;;;;2.38;2.20;;;;;;;;;;1309976;22;20010;-75
2024/02/16 01:15:39;;;;;;;3.50;2.30;;;;;;;;;;1309872;22;20466;-75
2024/02/16 01:16:09;;;;;;;4.05;3.58;;;;;;;;;;1310205;22;20002;-75
2024/02/16 01:16:40;;;;;;;4.00;2.55;;;;;;;;;;1309963;22;20013;-76
2024/02/16 01:17:10;;;;;;;4.47;3.13;;;;;;;;;;1303308;22;20010;-75
2024/02/16 01:17:41;;;;;;;1.30;1.27;;;;;;;;;;1296040;22;20034;-76
2024/02/16 01:18:11;;;;;;;0.77;0.77;;;;;;;;;;1295474;22;20419;-75
2024/02/16 01:18:42;;;;;;;5.00;3.47;;;;;;;;;;1296830;22;20008;-76
2024/02/16 01:19:12;;;;;;;5.47;4.78;;;;;;;;;;1302243;22;20031;-76
2024/02/16 01:19:43;;;;;;;0.30;0.30;;;;;;;;;;1286849;22;20011;-75
2024/02/16 01:20:13;;;;;;;1.67;1.55;;;;;;;;;;1270566;23;20010;-73
2024/02/16 01:20:44;;;;;;;0.65;0.65;;;;;;;;;;1258503;23;20015;-76
2024/02/16 01:21:15;;;;;;;2.30;1.38;;;;;;;;;;1263951;23;20006;-76
2024/02/16 01:21:52;;;;;;;0.10;0.10;;;;;;;;;;1264531;23;20005;-75
2024/02/16 01:22:22;;;;;;;1.67;1.60;;;;;;;;;;1259413;23;20002;-75
2024/02/16 01:22:53;;;;;;;1.25;1.20;;;;;;;;;;1256233;23;20029;-78
2024/02/16 01:23:25;;;;;;;0.85;0.85;;;;;;;;;;1282176;22;20002;-78
2024/02/16 01:23:59;;;;;;;2.25;1.23;;;;;;;;;;1303465;22;20010;-76
2024/02/16 01:24:29;;;;;;;1.85;1.75;;;;;;;;;;1302300;22;20060;-74
2024/02/16 01:25:00;;;;;;;0.45;0.45;;;;;;;;;;1276916;23;20091;-76
2024/02/16 01:26:05;;;;;;;3.00;2.45;;;;;;;;;;1276884;23;20211;-77
2024/02/16 01:26:36;;;;;;;2.55;1.90;;;;;;;;;;1276328;23;20244;-76
2024/02/16 01:27:07;;;;;;;25.33;5.10;;;;;;;;;;1269762;23;20299;-77
2024/02/16 01:27:37;;;;;;;2.97;1.75;;;;;;;;;;1263400;23;20565;-78
2024/02/16 01:28:08;;;;;;;2.35;1.98;;;;;;;;;;1274897;22;20031;-77
2024/02/16 01:28:38;;;;;;;1.35;0.65;;;;;;;;;;1281856;23;20005;-75
2024/02/16 01:29:09;;;;;;;2.38;1.45;;;;;;;;;;1281209;23;20008;-76
2024/02/16 01:29:39;;;;;;;1.85;1.75;;;;;;;;;;1288739;23;20142;-78
2024/02/16 01:30:10;;;;;;;1.80;1.70;;;;;;;;;;1289095;22;20091;-79
2024/02/16 01:30:40;;;;;;;0.85;0.85;;;;;;;;;;1294044;22;20007;-75
2024/02/16 01:31:11;;;;;;;0.93;0.85;;;;;;;;;;1290190;22;20146;-78
2024/02/16 01:31:42;;;;;;;3.08;2.22;;;;;;;;;;1287253;23;20036;-78
2024/02/16 01:32:13;;;;;;;2.83;2.63;;;;;;;;;;1287778;22;20004;-77
2024/02/16 01:32:44;;;;;;;1.15;1.05;;;;;;;;;;1288853;23;20014;-76
2024/02/16 01:33:19;;;;;;;0.20;0.20;;;;;;;;;;1291556;22;20274;-83
2024/02/16 01:33:49;;;;;;;2.22;2.08;;;;;;;;;;1300225;22;20064;-79
2024/02/16 01:34:22;;;;;;;0.17;0.17;;;;;;;;;;1301771;22;20008;-75
2024/02/16 01:34:52;;;;;;;0.73;0.73;;;;;;;;;;1306239;22;20446;-76
2024/02/16 01:35:23;;;;;;;1.40;1.38;;;;;;;;;;1299149;22;20418;-77
2024/02/16 01:35:53;;;;;;;8.55;5.43;;;;;;;;;;1298296;22;20504;-77
2024/02/16 01:36:24;;;;;;;12.48;1.83;;;;;;;;;;1299446;22;20014;-77
2024/02/16 01:36:54;;;;;;;7.53;1.85;;;;;;;;;;1299823;22;19999;-79
2024/02/16 01:37:25;;;;;;;4.00;2.67;;;;;;;;;;1299363;22;20011;-77
2024/02/16 01:37:55;;;;;;;3.63;1.30;;;;;;;;;;1297865;22;20081;-77
2024/02/16 01:38:26;;;;;;;0.85;0.85;;;;;;;;;;1299346;22;20003;-76
2024/02/16 01:38:56;;;;;;;0.75;0.70;;;;;;;;;;1299918;22;20007;-77
2024/02/16 01:39:27;;;;;;;1.33;1.23;;;;;;;;;;1301486;22;20203;-77
2024/02/16 01:39:57;;;;;;;0.50;0.50;;;;;;;;;;1301757;22;20082;-76
2024/02/16 01:40:28;;;;;;;0.25;0.25;;;;;;;;;;1309012;22;20013;-78
2024/02/16 01:41:01;;;;;;;5.72;3.35;;;;;;;;;;1301777;22;20002;-78
2024/02/16 01:41:32;;;;;;;1.67;1.58;;;;;;;;;;1301540;22;20436;-76
2024/02/16 01:42:37;;;;;;;0.95;0.95;;;;;;;;;;1273489;23;20414;-78
2024/02/16 01:43:08;;;;;;;0.95;0.95;;;;;;;;;;1274841;23;20141;-79
2024/02/16 01:43:39;;;;;;;6.45;4.20;;;;;;;;;;1269577;23;20029;-77
2024/02/16 01:44:10;;;;;;;4.38;2.70;;;;;;;;;;1269946;23;20013;-78
2024/02/16 01:44:40;;;;;;;1.63;1.52;;;;;;;;;;1269193;23;20015;-78
2024/02/16 01:45:12;;;;;;;0.10;0.10;;;;;;;;;;1275810;23;20036;-78
2024/02/16 01:45:43;;;;;;;1.83;1.40;;;;;;;;;;1275973;23;20012;-78
2024/02/16 01:46:13;;;;;;;0.50;0.50;;;;;;;;;;1269972;23;20085;-78
2024/02/16 01:46:44;;;;;;;19.50;1.63;;;;;;;;;;1269982;23;20116;-78
2024/02/16 01:47:15;;;;;;;1.02;1.02;;;;;;;;;;1261975;23;20093;-78
2024/02/16 01:47:47;;;;;;;2.22;1.73;;;;;;;;;;1257933;23;19998;-78
2024/02/16 01:48:18;;;;;;;5.90;2.35;;;;;;;;;;1264630;23;19998;-78
2024/02/16 01:48:50;;;;;;;2.20;1.75;;;;;;;;;;1264548;23;20415;-78
2024/02/16 01:49:21;;;;;;;0.63;0.63;;;;;;;;;;1270139;23;20008;-78
2024/02/16 01:49:51;;;;;;;4.28;1.25;;;;;;;;;;1263257;23;19998;-78
2024/02/16 01:50:22;;;;;;;1.48;1.38;;;;;;;;;;1263839;23;20085;-78
2024/02/16 01:50:53;;;;;;;1.40;1.30;;;;;;;;;;1263851;23;20420;-78
2024/02/16 01:51:25;;;;;;;0.63;0.63;;;;;;;;;;1263816;23;20005;-78
2024/02/16 01:51:56;;;;;;;0.15;0.13;;;;;;;;;;1263702;23;20033;-78
2024/02/16 01:52:27;;;;;;;5.45;3.85;;;;;;;;;;1264242;23;20010;-78
2024/02/16 01:52:57;;;;;;;7.32;2.42;;;;;;;;;;1265321;23;20089;-78
2024/02/16 01:53:28;;;;;;;2.40;2.28;;;;;;;;;;1264355;23;20006;-78
2024/02/16 01:54:00;;;;;;;3.35;3.10;;;;;;;;;;1263882;22;20087;-77
2024/02/16 01:54:31;;;;;;;1.98;1.88;;;;;;;;;;1275587;23;20065;-78
2024/02/16 01:55:08;;;;;;;2.63;2.47;;;;;;;;;;1276189;23;20062;-78
2024/02/16 01:55:39;;;;;;;4.50;2.88;;;;;;;;;;1282563;23;20004;-78
2024/02/16 01:56:09;;;;;;;0.70;0.63;;;;;;;;;;1282416;23;20092;-78
2024/02/16 01:56:40;;;;;;;0.35;0.35;;;;;;;;;;1282645;23;20095;-78
2024/02/16 01:57:12;;;;;;;0.20;0.20;;;;;;;;;;1274169;23;20005;-78
2024/02/16 01:57:43;;;;;;;0.38;0.38;;;;;;;;;;1275371;23;20388;-78
2024/02/16 01:58:14;;;;;;;0.80;0.80;;;;;;;;;;1275469;23;20428;-78
2024/02/16 01:58:44;;;;;;;1.15;1.10;;;;;;;;;;1269983;23;20005;-78
2024/02/16 01:59:15;;;;;;;5.82;3.97;;;;;;;;;;1276010;23;20486;-78
2024/02/16 01:59:45;;;;;;;0.93;0.85;;;;;;;;;;1275880;23;20365;-78
2024/02/16 02:00:17;;;;;;;1.25;1.23;;;;;;;;;;1275928;23;20481;-78
2024/02/16 02:00:48;;;;;;;2.60;1.60;;;;;;;;;;1276958;22;20070;-78
2024/02/16 02:01:18;;;;;;;0.20;0.20;;;;;;;;;;1275709;23;20537;-78
2024/02/16 02:01:49;;;;;;;1.10;1.10;;;;;;;;;;1268731;23;20114;-78
2024/02/16 02:02:19;;;;;;;0.32;0.32;;;;;;;;;;1269545;23;20616;-78
2024/02/16 02:02:50;;;;;;;6.60;2.75;;;;;;;;;;1275113;23;20001;-78
2024/02/16 02:03:20;;;;;;;2.00;1.85;;;;;;;;;;1274696;23;20448;-78
2024/02/16 02:03:51;;;;;;;0.68;0.68;;;;;;;;;;1268341;22;20058;-78
2024/02/16 02:04:21;;;;;;;1.05;0.63;;;;;;;;;;1268367;23;20059;-78
2024/02/16 02:04:52;;;;;;;0.52;0.52;;;;;;;;;;1275958;23;20012;-77
2024/02/16 02:05:22;;;;;;;3.13;2.72;;;;;;;;;;1269823;22;20031;-77
2024/02/16 02:05:55;;;;;;;2.95;2.75;;;;;;;;;;1276261;23;20083;-78
2024/02/16 02:06:26;;;;;;;6.85;4.55;;;;;;;;;;1276146;23;20005;-78
2024/02/16 02:06:56;;;;;;;2.47;1.83;;;;;;;;;;1276265;23;20087;-78
2024/02/16 02:07:27;;;;;;;1.23;1.17;;;;;;;;;;1274335;23;20016;-78
2024/02/16 02:07:58;;;;;;;0.82;0.60;;;;;;;;;;1275576;23;20020;-78
2024/02/16 02:08:28;;;;;;;0.73;0.68;;;;;;;;;;1275475;23;20009;-79
2024/02/16 02:08:59;;;;;;;2.90;2.65;;;;;;;;;;1269674;23;20520;-78
2024/02/16 02:09:29;;;;;;;2.75;2.55;;;;;;;;;;1264296;23;20001;-79
2024/02/16 02:10:00;;;;;;;4.30;1.55;;;;;;;;;;1270260;23;20356;-78
2024/02/16 02:10:30;;;;;;;0.73;0.73;;;;;;;;;;1269137;23;20010;-78
2024/02/16 02:11:02;;;;;;;3.80;2.92;;;;;;;;;;1275512;23;20046;-78
2024/02/16 02:11:33;;;;;;;0.85;0.85;;;;;;;;;;1282658;23;20008;-78
2024/02/16 02:12:03;;;;;;;0.52;0.52;;;;;;;;;;1281500;23;20065;-78
2024/02/16 02:12:34;;;;;;;1.70;0.73;;;;;;;;;;1282751;23;20123;-78
2024/02/16 02:13:04;;;;;;;0.25;0.25;;;;;;;;;;1282925;23;20008;-78
2024/02/16 02:13:35;;;;;;;0.20;0.20;;;;;;;;;;1282370;23;20004;-78
2024/02/16 02:14:05;;;;;;;3.17;2.50;;;;;;;;;;1282682;23;20004;-78
2024/02/16 02:14:39;;;;;;;1.33;1.23;;;;;;;;;;1275769;22;20009;-78
2024/02/16 02:15:09;;;;;;;0.52;0.52;;;;;;;;;;1276370;23;20111;-78
2024/02/16 02:15:40;;;;;;;1.85;1.55;;;;;;;;;;1269119;22;20285;-78
2024/02/16 02:16:11;;;;;;;4.10;2.63;;;;;;;;;;1270440;23;20391;-78
2024/02/16 02:16:42;;;;;;;0.55;0.55;;;;;;;;;;1276084;23;20377;-78
2024/02/16 02:17:12;;;;;;;0.75;0.75;;;;;;;;;;1275928;23;20001;-78
2024/02/16 02:17:43;;;;;;;1.38;1.27;;;;;;;;;;1282358;23;20008;-78
2024/02/16 02:18:14;;;;;;;1.30;1.20;;;;;;;;;;1282675;23;20027;-78
2024/02/16 02:18:44;;;;;;;1.48;1.38;;;;;;;;;;1276275;22;20005;-78
2024/02/16 02:19:15;;;;;;;0.70;0.52;;;;;;;;;;1269898;23;20031;-78
2024/02/16 02:19:46;;;;;;;3.92;1.42;;;;;;;;;;1269744;23;20025;-78
2024/02/16 02:20:16;;;;;;;2.30;1.38;;;;;;;;;;1263294;23;20439;-78
2024/02/16 02:20:47;;;;;;;0.43;0.43;;;;;;;;;;1263941;23;20009;-78
2024/02/16 02:21:17;;;;;;;5.97;5.47;;;;;;;;;;1263359;23;20496;-78
2024/02/16 02:21:48;;;;;;;1.02;0.85;;;;;;;;;;1260941;23;20010;-78
2024/02/16 02:22:19;;;;;;;11.10;2.35;;;;;;;;;;1262076;23;19998;-78
2024/02/16 02:22:50;;;;;;;3.15;2.95;;;;;;;;;;1267664;23;20118;-78
2024/02/16 02:23:21;;;;;;;2.08;1.98;;;;;;;;;;1269370;23;20017;-78
2024/02/16 02:23:51;;;;;;;0.20;0.20;;;;;;;;;;1275867;23;20534;-78
2024/02/16 02:24:22;;;;;;;0.95;0.95;;;;;;;;;;1273293;22;20117;-78
2024/02/16 02:24:53;;;;;;;2.58;2.38;;;;;;;;;;1275081;23;20408;-78
2024/02/16 02:25:26;;;;;;;1.20;0.88;;;;;;;;;;1269654;22;20005;-78
2024/02/16 02:25:57;;;;;;;0.10;0.10;;;;;;;;;;1270783;23;20558;-78
2024/02/16 02:26:28;;;;;;;0.45;0.45;;;;;;;;;;1269874;23;20016;-78
2024/02/16 02:26:58;;;;;;;4.15;2.47;;;;;;;;;;1264446;23;20010;-78
2024/02/16 02:27:29;;;;;;;0.43;0.43;;;;;;;;;;1263002;23;20655;-78
2024/02/16 02:28:02;;;;;;;0.30;0.30;;;;;;;;;;1263992;23;20043;-78
2024/02/16 02:28:34;;;;;;;1.15;1.05;;;;;;;;;;1263665;23;20009;-78
2024/02/16 02:29:04;;;;;;;0.60;0.60;;;;;;;;;;1268766;23;20041;-78
2024/02/16 02:29:35;;;;;;;1.00;1.00;;;;;;;;;;1274030;23;20459;-78
2024/02/16 02:30:06;;;;;;;0.85;0.85;;;;;;;;;;1274438;23;20087;-79
2024/02/16 02:30:37;;;;;;;1.63;1.52;;;;;;;;;;1273289;23;20005;-78
2024/02/16 02:31:09;;;;;;;1.38;1.33;;;;;;;;;;1267298;23;20023;-79
2024/02/16 02:31:40;;;;;;;0.52;0.52;;;;;;;;;;1270169;23;20104;-77
2024/02/16 02:32:12;;;;;;;0.68;0.68;;;;;;;;;;1275722;23;20017;-78
2024/02/16 02:32:42;;;;;;;12.75;3.35;;;;;;;;;;1275860;23;20062;-77
2024/02/16 02:33:13;;;;;;;2.08;1.98;;;;;;;;;;1275839;23;20333;-77
2024/02/16 02:33:44;;;;;;;0.30;0.30;;;;;;;;;;1275484;23;20005;-77
2024/02/16 02:34:14;;;;;;;2.38;2.15;;;;;;;;;;1275387;23;20366;-78
2024/02/16 02:34:45;;;;;;;1.67;1.15;;;;;;;;;;1274799;23;20001;-78
2024/02/16 02:35:18;;;;;;;1.40;1.30;;;;;;;;;;1269630;23;20096;-78
2024/02/16 02:35:49;;;;;;;0.20;0.20;;;;;;;;;;1270090;23;20059;-78
2024/02/16 02:36:19;;;;;;;1.38;1.27;;;;;;;;;;1269156;23;20059;-78
2024/02/16 02:36:50;;;;;;;0.32;0.32;;;;;;;;;;1270443;23;20084;-77
2024/02/16 02:37:20;;;;;;;4.40;4.00;;;;;;;;;;1275624;23;20013;-78
2024/02/16 02:37:51;;;;;;;2.28;1.95;;;;;;;;;;1268274;23;20013;-78
2024/02/16 02:38:21;;;;;;;1.38;1.27;;;;;;;;;;1274591;23;20487;-78
2024/02/16 02:38:52;;;;;;;2.40;1.15;;;;;;;;;;1273850;23;20393;-78
2024/02/16 02:39:22;;;;;;;1.85;1.55;;;;;;;;;;1274404;23;20009;-78
2024/02/16 02:39:53;;;;;;;1.85;1.70;;;;;;;;;;1274262;23;20009;-78
2024/02/16 02:40:24;;;;;;;0.00;0.00;;;;;;;;;;1281699;23;20333;-78
2024/02/16 02:40:54;;;;;;;0.63;0.63;;;;;;;;;;1274943;22;20506;-78
2024/02/16 02:41:25;;;;;;;2.67;0.38;;;;;;;;;;1268126;22;20039;-78
2024/02/16 02:41:57;;;;;;;1.90;1.80;;;;;;;;;;1268856;23;20010;-78
2024/02/16 02:42:28;;;;;;;1.27;1.23;;;;;;;;;;1268003;23;20442;-79
2024/02/16 02:42:58;;;;;;;0.55;0.55;;;;;;;;;;1276151;23;20349;-78
2024/02/16 02:43:29;;;;;;;0.35;0.35;;;;;;;;;;1281144;23;20039;-78
2024/02/16 02:43:59;;;;;;;8.40;2.20;;;;;;;;;;1274557;22;20005;-78
2024/02/16 02:44:31;;;;;;;0.30;0.25;;;;;;;;;;1274542;23;20341;-78
2024/02/16 02:45:02;;;;;;;3.15;2.95;;;;;;;;;;1267280;23;20036;-78
2024/02/16 02:45:33;;;;;;;0.13;0.13;;;;;;;;;;1269223;23;20401;-78
2024/02/16 02:46:03;;;;;;;0.17;0.17;;;;;;;;;;1273914;23;20005;-78
2024/02/16 02:46:34;;;;;;;2.20;2.00;;;;;;;;;;1275265;23;20005;-78
2024/02/16 02:47:04;;;;;;;1.65;1.55;;;;;;;;;;1268250;23;20071;-78
2024/02/16 02:47:35;;;;;;;2.63;2.42;;;;;;;;;;1280175;22;20005;-77
2024/02/16 02:48:06;;;;;;;0.52;0.52;;;;;;;;;;1296980;22;20110;-77
2024/02/16 02:48:36;;;;;;;16.17;2.03;;;;;;;;;;1294973;22;20010;-78
2024/02/16 02:49:08;;;;;;;2.78;2.22;;;;;;;;;;1300677;22;20006;-78
2024/02/16 02:49:38;;;;;;;1.60;1.50;;;;;;;;;;1293292;22;20592;-78
2024/02/16 02:50:09;;;;;;;1.55;1.33;;;;;;;;;;1294309;22;20065;-78
2024/02/16 02:50:40;;;;;;;2.05;1.88;;;;;;;;;;1288009;22;20115;-79
2024/02/16 02:51:10;;;;;;;2.35;2.15;;;;;;;;;;1281876;23;20495;-78
2024/02/16 02:51:41;;;;;;;0.40;0.40;;;;;;;;;;1285179;23;20102;-78
2024/02/16 02:52:11;;;;;;;1.85;1.75;;;;;;;;;;1287244;22;20004;-78
2024/02/16 02:52:45;;;;;;;0.47;0.47;;;;;;;;;;1293422;22;20008;-79
2024/02/16 02:53:16;;;;;;;0.30;0.30;;;;;;;;;;1299952;22;20423;-78
2024/02/16 02:53:46;;;;;;;0.35;0.35;;;;;;;;;;1300084;22;20001;-76
2024/02/16 02:54:17;;;;;;;0.52;0.52;;;;;;;;;;1301272;22;20003;-77
2024/02/16 02:54:47;;;;;;;0.95;0.95;;;;;;;;;;1305577;22;20007;-77
2024/02/16 02:55:18;;;;;;;1.85;1.67;;;;;;;;;;1307979;22;20456;-77
2024/02/16 02:55:49;;;;;;;2.35;2.15;;;;;;;;;;1299317;22;20010;-76
2024/02/16 02:56:20;;;;;;;3.92;3.60;;;;;;;;;;1300263;22;20313;-76
2024/02/16 02:56:53;;;;;;;0.30;0.30;;;;;;;;;;1293340;22;20000;-77
2024/02/16 02:57:24;;;;;;;18.38;3.40;;;;;;;;;;1292930;22;20438;-77
2024/02/16 02:57:57;;;;;;;3.03;2.25;;;;;;;;;;1301139;22;20014;-78
2024/02/16 02:58:28;;;;;;;0.15;0.15;;;;;;;;;;1300124;22;20052;-77
2024/02/16 02:58:59;;;;;;;2.15;2.05;;;;;;;;;;1294084;22;20031;-76
2024/02/16 02:59:29;;;;;;;1.38;1.33;;;;;;;;;;1293192;22;20007;-79
2024/02/16 03:00:05;;;;;;;1.55;1.48;;;;;;;;;;1292722;22;20012;-79
2024/02/16 03:00:36;;;;;;;1.33;1.33;;;;;;;;;;1297304;22;20009;-76
2024/02/16 03:01:49;;;;;;;0.13;0.13;;;;;;;;;;1279316;23;20035;-78
2024/02/16 03:02:20;;;;;;;1.65;1.55;;;;;;;;;;1279505;23;20068;-77
2024/02/16 03:02:50;;;;;;;0.55;0.55;;;;;;;;;;1279678;23;20008;-79
2024/02/16 03:03:22;;;;;;;2.67;2.30;;;;;;;;;;1281232;23;20492;-81
2024/02/16 03:03:52;;;;;;;0.20;0.20;;;;;;;;;;1275926;23;20004;-81
2024/02/16 03:04:23;;;;;;;2.03;0.90;;;;;;;;;;1280372;23;20000;-79
2024/02/16 03:04:53;;;;;;;2.30;2.10;;;;;;;;;;1279189;23;20120;-79
2024/02/16 03:05:24;;;;;;;0.25;0.25;;;;;;;;;;1279661;23;20115;-79
2024/02/16 03:05:54;;;;;;;0.70;0.70;;;;;;;;;;1281500;23;20028;-80
2024/02/16 03:06:25;;;;;;;0.20;0.20;;;;;;;;;;1284236;23;20458;-81
2024/02/16 03:06:55;;;;;;;2.03;1.92;;;;;;;;;;1281537;23;20020;-81